Weather History for KMCJ - February, 2013

Change the Weather History Date:

Friday, February 8, 2013

  Actual Average (KHOU) Record (KHOU)
Temperature  
Mean Temperature 63 °F 55 °F  
Max Temperature 71 °F 65 °F 82 °F (1932)
Min Temperature 55 °F 45 °F 10 °F (1895)
Degree Days  
Heating Degree Days 2 11  
Month to date heating degree days 88  
Since 1 July heating degree days 1012  
Growing Degree Days 13 (Base 50)    
Moisture  
Dew Point 50 °F    
Average Humidity 68    
Maximum Humidity 100    
Minimum Humidity 41    
Precipitation  
Precipitation 0.00 in 0.11 in 1.84 in (1934)
Month to date precipitation 0.86  
Year to date precipitation 4.24  
Sea Level Pressure  
Sea Level Pressure 30.08 in    
Wind  
Wind Speed 10 mph (NNE)    
Max Wind Speed 21 mph    
Max Gust Speed 25 mph    
Visibility 10 miles    
Events      
T = Trace of Precipitation, MM = Missing Value Source: NWS Daily Summary

Daily Weather History Graph

Daily Weather History Graph

Search for Another Location

Airport or City:

Trip Planner

Search our weather history database for the weather conditions in past years. The results will help you decide how hot, cold, wet, or windy it might be!

Date:

Astronomy

Feb. 08, 2013 Rise Set
Actual Time 7:06 AM CST 6:05 PM CST
Civil Twilight 6:41 AM CST 6:30 PM CST
Nautical Twilight 6:13 AM CST 6:58 PM CST
Astronomical Twilight 5:45 AM CST 7:26 PM CST
Moon 5:32 AM CST (2/8) 4:41 PM CST (2/8)
Length of Visible Light 11h 48m
Length of Day
10h 58m
Waning Crescent, 3% of the Moon is Illuminated
Feb 8
Waning Crescent
Feb 10
New
Feb 17
First Quarter
Feb 25
Full
Mar 4
Last Quarter

Hourly Weather History & Observations

Time (CST) Temp. Dew Point Humidity Pressure Visibility Wind Dir Wind Speed Gust Speed Precip Events Conditions
12:15 AM 62.6 °F 62.6 °F 100% 29.97 in 5.0 mi West 4.6 mph - N/A   Partly Cloudy
12:35 AM 64.4 °F 62.6 °F 94% 29.97 in 5.0 mi West 9.2 mph - N/A   Partly Cloudy
12:55 AM 62.6 °F 62.6 °F 100% 29.97 in 5.0 mi WNW 4.6 mph - N/A   Mostly Cloudy
1:15 AM 62.6 °F 62.6 °F 100% 29.98 in 5.0 mi NW 6.9 mph 17.3 mph N/A   Mostly Cloudy
1:35 AM 62.6 °F 60.8 °F 94% 29.98 in 8.0 mi NNW 11.5 mph 16.1 mph N/A   Partly Cloudy
1:55 AM 62.6 °F 59.0 °F 88% 29.99 in 9.0 mi North 11.5 mph 16.1 mph N/A   Clear
2:15 AM 62.6 °F 57.2 °F 82% 29.99 in 10.0 mi North 13.8 mph 18.4 mph N/A   Clear
2:35 AM 62.6 °F 55.4 °F 77% 30.00 in 10.0 mi North 12.7 mph 21.9 mph N/A   Clear
2:55 AM 60.8 °F 55.4 °F 82% 30.01 in 10.0 mi North 13.8 mph 23.0 mph N/A   Clear
3:15 AM 59.0 °F 53.6 °F 82% 30.01 in 10.0 mi North 13.8 mph - N/A   Clear
3:55 AM 59.0 °F 53.6 °F 82% 30.02 in 10.0 mi North 12.7 mph 19.6 mph N/A   Clear
4:15 AM 57.2 °F 51.8 °F 82% 30.02 in 10.0 mi North 12.7 mph 20.7 mph N/A   Clear
4:35 AM 57.2 °F 50.0 °F 77% 30.03 in 10.0 mi North 12.7 mph 21.9 mph N/A   Clear
4:55 AM 57.2 °F 50.0 °F 77% 30.03 in 10.0 mi North 12.7 mph - N/A   Clear
5:15 AM 55.4 °F 50.0 °F 82% 30.04 in 10.0 mi North 11.5 mph 17.3 mph N/A   Clear
5:35 AM 55.4 °F 50.0 °F 82% 30.04 in 10.0 mi North 15.0 mph - N/A   Clear
5:55 AM 55.4 °F 50.0 °F 82% 30.05 in 10.0 mi North 11.5 mph 17.3 mph N/A   Clear
6:15 AM 55.4 °F 50.0 °F 82% 30.05 in 10.0 mi North 12.7 mph - N/A   Clear
6:35 AM 55.4 °F 50.0 °F 82% 30.07 in 10.0 mi North 11.5 mph 17.3 mph N/A   Partly Cloudy
6:55 AM 55.4 °F 50.0 °F 82% 30.07 in 10.0 mi North 13.8 mph - N/A   Scattered Clouds
7:15 AM 55.4 °F 48.2 °F 77% 30.08 in 10.0 mi North 11.5 mph - N/A   Partly Cloudy
7:35 AM 55.4 °F 48.2 °F 77% 30.09 in 10.0 mi North 10.4 mph - N/A   Clear
7:55 AM 55.4 °F 48.2 °F 77% 30.11 in 10.0 mi North 11.5 mph - N/A   Clear
8:15 AM 55.4 °F 48.2 °F 77% 30.11 in 10.0 mi North 11.5 mph - N/A   Clear
8:35 AM 57.2 °F 48.2 °F 72% 30.12 in 10.0 mi NNE 9.2 mph 19.6 mph N/A   Partly Cloudy
8:55 AM 57.2 °F 48.2 °F 72% 30.12 in 10.0 mi North 16.1 mph - N/A   Clear
9:15 AM 57.2 °F 48.2 °F 72% 30.13 in 10.0 mi North 16.1 mph - N/A   Clear
9:35 AM 59.0 °F 48.2 °F 67% 30.14 in 10.0 mi NNE 12.7 mph - N/A   Clear
9:55 AM 59.0 °F 48.2 °F 67% 30.14 in 10.0 mi NNE 10.4 mph - N/A   Clear
10:15 AM 59.0 °F 48.2 °F 67% 30.15 in 10.0 mi NNE 13.8 mph - N/A   Clear
10:35 AM 60.8 °F 48.2 °F 63% 30.15 in 10.0 mi North 10.4 mph - N/A   Clear
10:55 AM 62.6 °F 48.2 °F 59% 30.15 in 10.0 mi North 10.4 mph 17.3 mph N/A   Clear
11:15 AM 62.6 °F 48.2 °F 59% 30.14 in 10.0 mi NNE 11.5 mph 18.4 mph N/A   Clear
11:35 AM 64.4 °F 48.2 °F 56% 30.14 in 10.0 mi NE 9.2 mph - N/A   Clear
11:55 AM 64.4 °F 48.2 °F 56% 30.14 in 10.0 mi NNE 8.1 mph 16.1 mph N/A   Clear
12:15 PM 64.4 °F 48.2 °F 56% 30.13 in 10.0 mi ENE 8.1 mph 16.1 mph N/A   Clear
12:35 PM 66.2 °F 48.2 °F 52% 30.12 in 10.0 mi NNE 10.4 mph - N/A   Clear
12:55 PM 66.2 °F 48.2 °F 52% 30.11 in 10.0 mi NNE 8.1 mph - N/A   Clear
1:15 PM 66.2 °F 48.2 °F 52% 30.10 in 10.0 mi North 5.8 mph - N/A   Clear
1:35 PM 68.0 °F 48.2 °F 49% 30.09 in 10.0 mi NNE 8.1 mph - N/A   Clear
1:55 PM 69.8 °F 48.2 °F 46% 30.09 in 10.0 mi North 8.1 mph - N/A   Clear
2:15 PM 69.8 °F 48.2 °F 46% 30.09 in 10.0 mi NNE 5.8 mph - N/A   Clear
2:35 PM 71.6 °F 48.2 °F 43% 30.09 in 10.0 mi North 3.5 mph - N/A   Clear
2:55 PM 71.6 °F 48.2 °F 43% 30.08 in 10.0 mi North 3.5 mph - N/A   Clear
3:15 PM 71.6 °F 48.2 °F 43% 30.07 in 10.0 mi ENE 8.1 mph - N/A   Clear
3:35 PM 71.6 °F 46.4 °F 41% 30.07 in 10.0 mi ENE 6.9 mph - N/A   Clear
3:55 PM 71.6 °F 46.4 °F 41% 30.07 in 10.0 mi NNE 9.2 mph - N/A   Clear
4:15 PM 71.6 °F 48.2 °F 43% 30.07 in 10.0 mi ENE 5.8 mph - N/A   Clear
4:35 PM 69.8 °F 48.2 °F 46% 30.07 in 10.0 mi ENE 8.1 mph - N/A   Clear
4:55 PM 69.8 °F 48.2 °F 46% 30.06 in 10.0 mi East 9.2 mph - N/A   Clear
5:15 PM 68.0 °F 48.2 °F 49% 30.07 in 10.0 mi ENE 11.5 mph - N/A   Clear
5:55 PM 66.2 °F 48.2 °F 52% 30.07 in 10.0 mi ENE 11.5 mph - N/A   Clear
6:15 PM 64.4 °F 48.2 °F 56% 30.07 in 10.0 mi ENE 16.1 mph - N/A   Clear
6:55 PM 60.8 °F 48.2 °F 63% 30.09 in 10.0 mi ENE 18.4 mph - N/A   Clear
7:15 PM 59.0 °F 48.2 °F 67% 30.09 in 10.0 mi ENE 20.7 mph 25.3 mph N/A   Clear
7:35 PM 59.0 °F 48.2 °F 67% 30.09 in 10.0 mi ENE 11.5 mph 21.9 mph N/A   Clear
7:55 PM 59.0 °F 48.2 °F 67% 30.10 in 10.0 mi ENE 13.8 mph - N/A   Clear
8:15 PM 59.0 °F 48.2 °F 67% 30.10 in 10.0 mi ENE 11.5 mph - N/A   Clear
8:35 PM 57.2 °F 48.2 °F 72% 30.10 in 10.0 mi ENE 11.5 mph - N/A   Clear
8:55 PM 57.2 °F 48.2 °F 72% 30.11 in 10.0 mi ENE 9.2 mph - N/A   Clear
9:15 PM 57.2 °F 48.2 °F 72% 30.11 in 10.0 mi East 9.2 mph - N/A   Clear
9:35 PM 57.2 °F 48.2 °F 72% 30.11 in 10.0 mi ENE 8.1 mph - N/A   Clear
9:55 PM 57.2 °F 48.2 °F 72% 30.11 in 10.0 mi East 6.9 mph - N/A   Clear
10:15 PM 57.2 °F 48.2 °F 72% 30.11 in 10.0 mi East 9.2 mph - N/A   Clear
10:35 PM 57.2 °F 48.2 °F 72% 30.11 in 10.0 mi East 8.1 mph - N/A   Clear
10:55 PM 57.2 °F 48.2 °F 72% 30.11 in 10.0 mi East 9.2 mph - N/A   Clear
11:15 PM 55.4 °F 50.0 °F 82% 30.11 in 10.0 mi East 11.5 mph - N/A   Clear
11:35 PM 55.4 °F 50.0 °F 82% 30.11 in 10.0 mi East 9.2 mph - N/A   Clear